createdAt,value
2018-10-09T00:00:39.833Z,0.40
2018-10-09T00:03:43.903Z,0.50
2018-10-09T00:06:48.188Z,0.63
2018-10-09T00:09:52.120Z,0.40
2018-10-09T00:12:56.060Z,0.87
2018-10-09T00:15:59.971Z,0.57
2018-10-09T00:19:04.204Z,0.60
2018-10-09T00:22:08.157Z,0.80
2018-10-09T00:25:12.078Z,0.40
2018-10-09T00:28:16.011Z,0.63
2018-10-09T00:31:20.162Z,0.60
2018-10-09T00:34:24.415Z,0.33
2018-10-09T00:37:28.350Z,0.30
2018-10-09T00:40:32.624Z,0.60
2018-10-09T00:43:36.790Z,0.50
2018-10-09T00:46:40.706Z,0.60
2018-10-09T00:49:44.840Z,0.80
2018-10-09T00:52:48.757Z,0.60
2018-10-09T00:55:52.866Z,0.73
2018-10-09T00:58:57.338Z,0.33
2018-10-09T01:02:01.253Z,0.47
2018-10-09T01:05:05.186Z,0.40
2018-10-09T01:08:09.641Z,0.60
2018-10-09T01:11:13.570Z,0.30
2018-10-09T01:14:17.624Z,0.50
2018-10-09T01:17:22.250Z,0.50
2018-10-09T01:20:31.288Z,0.60
2018-10-09T01:23:35.717Z,0.40
2018-10-09T01:26:39.658Z,0.50
2018-10-09T01:29:43.822Z,0.40
2018-10-09T01:32:47.740Z,0.40
2018-10-09T01:35:51.638Z,0.73
2018-10-09T01:38:55.985Z,0.40
2018-10-09T01:41:59.927Z,0.50
2018-10-09T01:45:04.189Z,0.40
2018-10-09T01:48:08.105Z,0.90
2018-10-09T01:51:12.005Z,0.73
2018-10-09T01:54:16.129Z,0.30
2018-10-09T01:57:20.395Z,0.60
2018-10-09T02:00:24.649Z,0.77
2018-10-09T02:03:28.595Z,0.90
2018-10-09T02:06:32.861Z,0.63
2018-10-09T02:09:36.822Z,0.70
2018-10-09T02:12:41.093Z,0.60
2018-10-09T02:15:45.227Z,0.73
2018-10-09T02:18:49.355Z,0.70
2018-10-09T02:21:53.286Z,0.80
2018-10-09T02:24:57.218Z,0.70
2018-10-09T02:28:01.145Z,0.53
2018-10-09T02:31:05.282Z,0.73
2018-10-09T02:34:09.417Z,0.50
2018-10-09T02:37:13.361Z,0.53
2018-10-09T02:40:17.332Z,0.60
2018-10-09T02:43:21.286Z,0.60
2018-10-09T02:46:25.226Z,0.77
2018-10-09T02:49:29.133Z,0.60
2018-10-09T02:52:33.257Z,0.50
2018-10-09T02:55:37.371Z,0.60
2018-10-09T02:58:41.303Z,0.73
2018-10-09T03:01:45.210Z,1.00
2018-10-09T03:04:49.111Z,0.43
2018-10-09T03:07:53.306Z,0.60
2018-10-09T03:10:57.251Z,0.73
2018-10-09T03:14:01.190Z,0.67
2018-10-09T03:17:05.117Z,0.40
2018-10-09T03:20:10.862Z,0.57
2018-10-09T03:23:14.975Z,1.20
2018-10-09T03:26:19.245Z,0.87
2018-10-09T03:29:23.169Z,0.50
2018-10-09T03:32:27.098Z,0.30
2018-10-09T03:35:31.223Z,0.90
2018-10-09T03:38:35.406Z,0.57
2018-10-09T03:41:39.652Z,0.40
2018-10-09T03:44:43.568Z,0.60
2018-10-09T03:47:47.530Z,0.60
2018-10-09T03:50:51.463Z,0.60
2018-10-09T03:53:55.386Z,0.83
2018-10-09T03:56:59.296Z,0.53
2018-10-09T04:00:03.426Z,0.57
2018-10-09T04:03:07.695Z,0.50
2018-10-09T04:06:11.630Z,0.60
2018-10-09T04:09:15.659Z,0.80
2018-10-09T04:12:19.721Z,0.60
2018-10-09T04:15:23.984Z,1.00
2018-10-09T04:18:27.899Z,0.70
2018-10-09T04:21:31.843Z,0.77
2018-10-09T04:24:35.772Z,0.50
2018-10-09T04:27:39.708Z,0.60
2018-10-09T04:30:43.643Z,0.73
2018-10-09T04:33:47.742Z,0.93
2018-10-09T04:36:51.699Z,0.50
2018-10-09T04:39:55.826Z,0.63
2018-10-09T04:42:59.770Z,1.23
2018-10-09T04:46:03.686Z,0.50
2018-10-09T04:49:07.631Z,0.50
2018-10-09T04:52:11.579Z,0.93
2018-10-09T04:55:15.510Z,0.80
2018-10-09T04:58:19.430Z,0.90
2018-10-09T05:01:23.379Z,0.77
2018-10-09T05:04:27.323Z,0.80
2018-10-09T05:07:31.458Z,0.80
2018-10-09T05:10:35.394Z,0.70
2018-10-09T05:13:39.331Z,0.80
2018-10-09T05:16:43.513Z,0.90
2018-10-09T05:19:47.418Z,0.80
2018-10-09T05:22:52.631Z,1.20
2018-10-09T05:25:56.617Z,0.90
2018-10-09T05:29:00.562Z,1.00
2018-10-09T05:32:04.676Z,1.17
2018-10-09T05:35:08.797Z,1.40
2018-10-09T05:38:12.933Z,1.17
2018-10-09T05:41:16.863Z,0.60
2018-10-09T05:44:20.888Z,0.90
2018-10-09T05:47:25.193Z,0.73
2018-10-09T05:50:29.119Z,0.90
2018-10-09T05:53:33.259Z,0.70
2018-10-09T05:56:37.205Z,0.70
2018-10-09T05:59:41.122Z,0.83
2018-10-09T06:02:45.238Z,0.67
2018-10-09T06:05:49.172Z,2.00
2018-10-09T06:08:53.326Z,0.70
2018-10-09T06:11:57.250Z,1.10
2018-10-09T06:15:01.182Z,1.00
2018-10-09T06:18:05.623Z,0.90
2018-10-09T06:21:09.541Z,1.00
2018-10-09T06:24:13.474Z,0.90
2018-10-09T06:27:17.446Z,1.00
2018-10-09T06:30:21.350Z,1.13
2018-10-09T06:33:25.606Z,0.70
2018-10-09T06:36:29.735Z,1.00
2018-10-09T06:39:33.997Z,1.37
2018-10-09T06:42:38.121Z,1.20
2018-10-09T06:45:42.253Z,0.83
2018-10-09T06:48:47.054Z,1.03
2018-10-09T06:51:51.186Z,1.57
2018-10-09T06:54:55.494Z,1.37
2018-10-09T06:57:59.885Z,1.53
2018-10-09T07:01:04.360Z,0.80
2018-10-09T07:04:08.281Z,1.43
2018-10-09T07:07:12.198Z,1.40
2018-10-09T07:10:16.139Z,1.27
2018-10-09T07:13:20.521Z,1.80
2018-10-09T07:16:24.770Z,1.10
2018-10-09T07:19:28.762Z,1.93
2018-10-09T07:22:32.688Z,1.20
2018-10-09T07:25:36.620Z,1.67
2018-10-09T07:28:40.860Z,1.37
2018-10-09T07:31:44.790Z,1.10
2018-10-09T07:34:48.733Z,0.93
2018-10-09T07:37:52.626Z,0.93
2018-10-09T07:40:56.581Z,2.60
2018-10-09T07:44:00.540Z,1.93
2018-10-09T07:47:04.956Z,1.37
2018-10-09T07:50:08.871Z,1.57
2018-10-09T07:53:12.795Z,1.93
2018-10-09T07:56:16.707Z,1.93
2018-10-09T07:59:20.987Z,2.20
2018-10-09T08:02:25.236Z,1.80
2018-10-09T08:05:29.175Z,2.00
2018-10-09T08:08:33.087Z,1.30
2018-10-09T08:11:36.995Z,1.87
2018-10-09T08:14:40.955Z,1.63
2018-10-09T08:17:44.880Z,1.50
2018-10-09T08:20:48.830Z,1.50
2018-10-09T08:23:52.758Z,1.83
2018-10-09T08:26:56.678Z,2.13
2018-10-09T08:30:00.600Z,2.47
2018-10-09T08:33:05.039Z,1.47
2018-10-09T08:36:08.979Z,1.60
2018-10-09T08:39:12.925Z,2.00
2018-10-09T08:42:16.850Z,1.10
2018-10-09T08:45:20.799Z,1.53
2018-10-09T08:48:24.708Z,1.60
2018-10-09T08:51:28.638Z,1.97
2018-10-09T08:54:32.578Z,2.00
2018-10-09T08:57:36.515Z,2.10
2018-10-09T09:00:40.443Z,1.63
2018-10-09T09:03:44.391Z,2.03
2018-10-09T09:06:48.330Z,1.23
2018-10-09T09:09:52.246Z,1.57
2018-10-09T09:12:56.244Z,1.83
2018-10-09T09:16:00.195Z,1.40
2018-10-09T09:19:04.551Z,1.80
2018-10-09T09:22:09.062Z,1.40
2018-10-09T09:25:13.026Z,1.83
2018-10-09T09:28:16.964Z,1.80
2018-10-09T09:31:21.222Z,2.67
2018-10-09T09:34:25.270Z,2.10
2018-10-09T09:37:29.558Z,2.63
2018-10-09T09:40:33.619Z,1.97
2018-10-09T09:43:37.561Z,2.80
2018-10-09T09:46:41.486Z,1.50
2018-10-09T09:49:45.425Z,2.33
2018-10-09T09:52:49.710Z,1.50
2018-10-09T09:55:53.676Z,1.97
2018-10-09T09:58:57.768Z,2.83
2018-10-09T10:02:02.083Z,2.37
2018-10-09T10:05:06.035Z,1.57
2018-10-09T10:08:10.008Z,1.83
2018-10-09T10:11:13.926Z,1.57
2018-10-09T10:14:17.858Z,1.40
2018-10-09T10:17:21.790Z,1.77
2018-10-09T10:20:26.063Z,2.27
2018-10-09T10:23:30.005Z,2.30
2018-10-09T10:26:34.487Z,1.90
2018-10-09T10:29:38.414Z,2.50
2018-10-09T10:32:42.678Z,1.97
2018-10-09T10:35:46.701Z,1.93
2018-10-09T10:38:51.334Z,2.47
2018-10-09T10:41:55.299Z,2.57
2018-10-09T10:44:59.403Z,2.20
2018-10-09T10:48:03.655Z,2.50
2018-10-09T10:51:07.582Z,2.23
2018-10-09T10:54:11.518Z,2.33
2018-10-09T10:57:15.791Z,2.93
2018-10-09T11:00:20.044Z,3.20
2018-10-09T11:03:23.985Z,3.97
2018-10-09T11:06:27.894Z,3.20
2018-10-09T11:09:42.890Z,2.70
2018-10-09T11:12:46.843Z,2.37
2018-10-09T11:15:50.782Z,1.80
2018-10-09T11:18:54.734Z,2.63
2018-10-09T11:21:58.661Z,2.30
2018-10-09T11:25:02.950Z,2.43
2018-10-09T11:28:07.155Z,2.57
2018-10-09T11:31:11.078Z,2.53
2018-10-09T11:34:15.016Z,2.67
2018-10-09T11:37:18.954Z,2.87
2018-10-09T11:40:23.226Z,2.90
2018-10-09T11:43:27.143Z,2.97
2018-10-09T11:46:31.414Z,2.20
2018-10-09T11:49:35.326Z,3.17
2018-10-09T11:52:39.278Z,2.90
2018-10-09T11:55:43.198Z,2.10
2018-10-09T11:58:47.192Z,2.13
2018-10-09T12:01:51.242Z,2.20
2018-10-09T12:04:55.378Z,1.90
2018-10-09T12:07:59.329Z,1.63
2018-10-09T12:11:03.276Z,2.00
2018-10-09T12:14:07.201Z,2.10
2018-10-09T12:17:11.478Z,2.60
2018-10-09T12:20:16.071Z,1.70
2018-10-09T12:23:20.211Z,1.93
2018-10-09T12:26:24.462Z,1.43
2018-10-09T12:29:28.735Z,2.00
2018-10-09T12:32:32.989Z,1.20
2018-10-09T12:35:36.930Z,1.03
2018-10-09T12:38:40.881Z,1.37
2018-10-09T12:41:44.802Z,0.93
2018-10-09T12:44:48.834Z,0.83
2018-10-09T12:47:53.118Z,1.07
2018-10-09T12:50:57.267Z,1.47
2018-10-09T12:54:01.578Z,1.50
2018-10-09T12:57:05.536Z,0.93
2018-10-09T13:00:09.680Z,0.87
2018-10-09T13:03:13.683Z,0.80
2018-10-09T13:06:17.793Z,1.33
2018-10-09T13:09:21.735Z,1.00
2018-10-09T13:12:25.848Z,0.90
2018-10-09T13:15:29.789Z,0.90
2018-10-09T13:18:33.924Z,0.80
2018-10-09T13:21:38.871Z,1.13
2018-10-09T13:24:42.814Z,1.10
2018-10-09T13:27:46.980Z,1.50
2018-10-09T13:30:50.938Z,0.73
2018-10-09T13:33:55.034Z,0.90
2018-10-09T13:36:59.156Z,1.70
2018-10-09T13:40:03.090Z,1.60
2018-10-09T13:43:07.194Z,1.10
2018-10-09T13:46:11.127Z,1.60
2018-10-09T13:49:15.379Z,0.97
2018-10-09T13:52:19.327Z,1.57
2018-10-09T13:55:23.443Z,1.10
2018-10-09T13:58:27.743Z,0.83
2018-10-09T14:01:31.695Z,1.43
2018-10-09T14:04:35.687Z,2.40
2018-10-09T14:07:39.613Z,1.27
2018-10-09T14:10:43.738Z,1.17
2018-10-09T14:13:47.663Z,1.00
2018-10-09T14:16:51.590Z,0.90
2018-10-09T14:19:55.539Z,1.30
2018-10-09T14:22:59.869Z,1.30
2018-10-09T14:26:03.928Z,1.17
2018-10-09T14:29:07.847Z,1.20
2018-10-09T14:32:11.786Z,1.30
2018-10-09T14:35:15.762Z,0.90
2018-10-09T14:38:19.698Z,1.50
2018-10-09T14:41:23.646Z,1.23
2018-10-09T14:44:27.588Z,1.33
2018-10-09T14:47:31.561Z,1.40
2018-10-09T14:50:35.703Z,1.87
2018-10-09T14:53:39.892Z,1.23
2018-10-09T14:56:43.820Z,1.27
2018-10-09T14:59:47.762Z,1.90
2018-10-09T15:02:51.724Z,1.40
2018-10-09T15:05:55.664Z,1.10
2018-10-09T15:08:59.783Z,0.90
2018-10-09T15:12:04.075Z,1.17
2018-10-09T15:15:08.254Z,1.00
2018-10-09T15:18:12.177Z,1.10
2018-10-09T15:21:16.444Z,1.90
2018-10-09T15:24:20.398Z,1.27
2018-10-09T15:27:24.707Z,1.83
2018-10-09T15:30:28.662Z,1.33
2018-10-09T15:33:32.608Z,1.77
2018-10-09T15:36:36.863Z,0.83
2018-10-09T15:39:40.808Z,1.13
2018-10-09T15:42:44.738Z,1.43
2018-10-09T15:45:48.687Z,1.03
2018-10-09T15:48:52.644Z,1.37
2018-10-09T15:51:56.601Z,1.40
2018-10-09T15:55:00.527Z,1.10
2018-10-09T15:58:04.796Z,0.97
2018-10-09T16:01:08.964Z,1.23
2018-10-09T16:04:12.919Z,0.70
2018-10-09T16:07:17.078Z,1.20
2018-10-09T16:10:21.023Z,1.40
2018-10-09T16:13:24.985Z,1.23
2018-10-09T16:16:28.909Z,1.30
2018-10-09T16:19:32.820Z,1.03
2018-10-09T16:22:36.738Z,0.80
2018-10-09T16:25:40.758Z,1.40
2018-10-09T16:28:45.002Z,1.80
2018-10-09T16:31:49.301Z,1.80
2018-10-09T16:34:53.226Z,1.23
2018-10-09T16:37:57.171Z,1.60
2018-10-09T16:41:01.126Z,1.67
2018-10-09T16:44:05.262Z,1.17
2018-10-09T16:47:09.258Z,1.30
2018-10-09T16:50:13.339Z,1.10
2018-10-09T16:53:17.400Z,1.00
2018-10-09T16:56:21.495Z,1.27
2018-10-09T16:59:25.422Z,1.20
2018-10-09T17:02:29.338Z,1.60
2018-10-09T17:05:33.284Z,1.13
2018-10-09T17:08:37.254Z,0.80
2018-10-09T17:11:41.934Z,1.03
2018-10-09T17:14:46.316Z,1.30
2018-10-09T17:17:50.263Z,1.33
2018-10-09T17:20:54.189Z,1.40
2018-10-09T17:23:58.441Z,1.50
2018-10-09T17:27:02.368Z,1.07
2018-10-09T17:30:07.455Z,1.30
2018-10-09T17:33:11.796Z,1.93
2018-10-09T17:36:15.995Z,1.63
2018-10-09T17:39:20.047Z,1.07
2018-10-09T17:42:24.090Z,1.30
2018-10-09T17:45:28.103Z,1.17
2018-10-09T17:48:32.269Z,1.70
2018-10-09T17:51:36.373Z,1.67
2018-10-09T17:54:40.289Z,1.60
2018-10-09T17:57:44.227Z,1.47
2018-10-09T18:00:48.182Z,1.07
2018-10-09T18:03:52.377Z,1.00
2018-10-09T18:06:56.306Z,1.37
2018-10-09T18:10:00.247Z,1.60
2018-10-09T18:13:04.623Z,1.10
2018-10-09T18:16:09.010Z,0.87
2018-10-09T18:19:14.324Z,1.33
2018-10-09T18:22:18.253Z,1.60
2018-10-09T18:25:22.178Z,2.50
2018-10-09T18:28:26.114Z,1.10
2018-10-09T18:31:30.194Z,1.47
2018-10-09T18:34:34.134Z,1.70
2018-10-09T18:37:38.079Z,1.17
2018-10-09T18:40:42.126Z,1.50
2018-10-09T18:43:46.228Z,1.00
2018-10-09T18:46:50.398Z,1.17
2018-10-09T18:49:54.325Z,0.90
2018-10-09T18:52:58.269Z,1.33
2018-10-09T18:56:18.701Z,1.83
2018-10-09T18:59:26.343Z,0.80
2018-10-09T19:02:30.479Z,1.53
2018-10-09T19:05:34.410Z,1.30
2018-10-09T19:08:38.328Z,1.00
2018-10-09T19:11:42.247Z,1.67
2018-10-09T19:14:46.179Z,1.03
2018-10-09T19:18:05.490Z,0.60
2018-10-09T19:21:11.574Z,0.90
2018-10-09T19:24:15.551Z,0.70
2018-10-09T19:27:19.564Z,1.03
2018-10-09T19:30:23.676Z,0.90
2018-10-09T19:33:27.597Z,1.40
2018-10-09T19:36:31.513Z,1.10
2018-10-09T19:39:35.434Z,1.10
2018-10-09T19:42:39.563Z,1.60
2018-10-09T19:45:43.815Z,1.00
2018-10-09T19:48:47.748Z,0.87
2018-10-09T19:51:51.690Z,1.30
2018-10-09T19:54:55.842Z,1.43
2018-10-09T19:57:59.890Z,1.10
2018-10-09T20:01:04.210Z,1.40
2018-10-09T20:04:08.317Z,1.17
2018-10-09T20:07:12.273Z,1.03
2018-10-09T20:10:16.260Z,0.93
2018-10-09T20:13:20.534Z,0.90
2018-10-09T20:16:24.803Z,1.20
2018-10-09T20:19:28.748Z,1.10
2018-10-09T20:22:33.041Z,1.30
2018-10-09T20:25:37.338Z,0.90
2018-10-09T20:28:41.335Z,1.10
2018-10-09T20:31:45.607Z,1.30
2018-10-09T20:34:49.785Z,1.00
2018-10-09T20:37:53.781Z,1.20
2018-10-09T20:40:57.742Z,1.07
2018-10-09T20:44:01.785Z,1.23
2018-10-09T20:47:06.189Z,0.93
2018-10-09T20:50:10.179Z,0.93
2018-10-09T20:53:14.102Z,0.63
2018-10-09T20:56:18.071Z,0.80
2018-10-09T20:59:21.991Z,0.77
2018-10-09T21:02:25.946Z,0.80
2018-10-09T21:05:30.265Z,1.70
2018-10-09T21:08:34.386Z,0.70
2018-10-09T21:11:38.335Z,1.00
2018-10-09T21:14:42.266Z,0.60
2018-10-09T21:17:46.281Z,1.30
2018-10-09T21:20:50.348Z,0.90
2018-10-09T21:23:54.280Z,0.70
2018-10-09T21:26:58.237Z,1.00
2018-10-09T21:30:02.399Z,0.93
2018-10-09T21:33:06.547Z,1.20
2018-10-09T21:36:10.534Z,1.00
2018-10-09T21:39:14.474Z,1.13
2018-10-09T21:42:18.602Z,1.50
2018-10-09T21:45:22.579Z,1.43
2018-10-09T21:48:26.615Z,0.50
2018-10-09T21:51:30.545Z,1.00
2018-10-09T21:54:34.462Z,1.10
2018-10-09T21:57:38.387Z,1.30
2018-10-09T22:01:17.651Z,0.93
2018-10-09T22:04:21.930Z,0.90
2018-10-09T22:07:25.845Z,1.03
2018-10-09T22:10:29.786Z,1.30
2018-10-09T22:13:33.753Z,0.97
2018-10-09T22:16:37.944Z,0.80
2018-10-09T22:19:41.867Z,1.73
2018-10-09T22:22:45.809Z,0.97
2018-10-09T22:25:50.067Z,1.40
2018-10-09T22:28:54.017Z,1.17
2018-10-09T22:31:58.021Z,1.00
2018-10-09T22:35:02.006Z,0.90
2018-10-09T22:38:06.100Z,1.30
2018-10-09T22:41:10.370Z,0.80
2018-10-09T22:44:14.665Z,0.90
2018-10-09T22:47:18.834Z,0.50
2018-10-09T22:50:23.110Z,0.97
2018-10-09T22:53:27.363Z,1.30
2018-10-09T22:56:31.300Z,1.30
2018-10-09T22:59:35.239Z,1.00
2018-10-09T23:02:39.167Z,1.00
2018-10-09T23:05:43.093Z,0.90
2018-10-09T23:08:47.331Z,0.93
2018-10-09T23:11:51.282Z,1.37
2018-10-09T23:14:55.224Z,0.50
2018-10-09T23:17:59.178Z,0.83
2018-10-09T23:21:03.105Z,0.60
2018-10-09T23:24:07.413Z,0.93
2018-10-09T23:27:11.726Z,1.97
2018-10-09T23:30:15.689Z,0.50
2018-10-09T23:33:19.617Z,0.60
2018-10-09T23:36:23.563Z,1.23
2018-10-09T23:39:27.497Z,0.70
2018-10-09T23:42:31.419Z,0.73
2018-10-09T23:45:35.898Z,0.90
2018-10-09T23:48:39.845Z,0.63
2018-10-09T23:51:43.786Z,1.30
2018-10-09T23:54:47.738Z,1.00
2018-10-09T23:57:52.009Z,0.90
